sensor_id;sensor_type;location;lat;lon;timestamp;pressure;altitude;pressure_sealevel;temperature;humidity
54146;BME280;65909;49.422;7.738;2023-02-22T00:01:51;76754.19;;;-145.25;80.94
54146;BME280;65909;49.422;7.738;2023-02-22T00:04:37;76756.22;;;-145.25;80.92
54146;BME280;65909;49.422;7.738;2023-02-22T00:07:04;76738.16;;;-145.25;79.93
54146;BME280;65909;49.422;7.738;2023-02-22T00:09:30;76724.13;;;-145.25;79.33
54146;BME280;65909;49.422;7.738;2023-02-22T00:11:55;76736.16;;;-145.25;79.70
54146;BME280;65909;49.422;7.738;2023-02-22T00:14:20;76732.16;;;-145.25;79.59
54146;BME280;65909;49.422;7.738;2023-02-22T00:16:46;76728.13;;;-145.25;79.75
54146;BME280;65909;49.422;7.738;2023-02-22T00:19:11;76732.16;;;-145.25;79.72
54146;BME280;65909;49.422;7.738;2023-02-22T00:21:37;76738.16;;;-145.25;79.91
54146;BME280;65909;49.422;7.738;2023-02-22T00:24:03;76742.19;;;-145.25;79.55
54146;BME280;65909;49.422;7.738;2023-02-22T00:26:47;76734.16;;;-145.25;80.08
54146;BME280;65909;49.422;7.738;2023-02-22T00:29:12;76772.25;;;-145.25;81.51
54146;BME280;65909;49.422;7.738;2023-02-22T00:31:37;76804.31;;;-145.25;83.04
54146;BME280;65909;49.422;7.738;2023-02-22T00:34:03;76790.28;;;-145.25;82.68
54146;BME280;65909;49.422;7.738;2023-02-22T00:36:28;76834.41;;;-145.25;82.63
54146;BME280;65909;49.422;7.738;2023-02-22T00:38:54;76804.31;;;-145.25;82.11
54146;BME280;65909;49.422;7.738;2023-02-22T00:41:20;76798.31;;;-145.25;81.11
54146;BME280;65909;49.422;7.738;2023-02-22T00:43:45;76808.34;;;-145.25;81.24
54146;BME280;65909;49.422;7.738;2023-02-22T00:46:13;76794.31;;;-145.25;80.66
54146;BME280;65909;49.422;7.738;2023-02-22T00:48:38;76780.28;;;-145.25;80.06
54146;BME280;65909;49.422;7.738;2023-02-22T00:51:04;76774.25;;;-145.25;79.90
54146;BME280;65909;49.422;7.738;2023-02-22T00:53:29;76774.25;;;-145.25;80.00
54146;BME280;65909;49.422;7.738;2023-02-22T00:55:54;76818.38;;;-145.25;81.16
54146;BME280;65909;49.422;7.738;2023-02-22T00:58:20;76810.34;;;-145.25;81.54
54146;BME280;65909;49.422;7.738;2023-02-22T01:00:46;76796.31;;;-145.25;80.83
54146;BME280;65909;49.422;7.738;2023-02-22T01:03:16;76808.34;;;-145.25;80.35
54146;BME280;65909;49.422;7.738;2023-02-22T01:05:42;76852.44;;;-145.25;81.29
54146;BME280;65909;49.422;7.738;2023-02-22T01:08:09;76824.38;;;-145.25;81.44
54146;BME280;65909;49.422;7.738;2023-02-22T01:10:36;76816.38;;;-145.25;81.57
54146;BME280;65909;49.422;7.738;2023-02-22T01:13:02;76852.44;;;-145.25;82.53
54146;BME280;65909;49.422;7.738;2023-02-22T01:15:33;76818.38;;;-145.25;81.66
54146;BME280;65909;49.422;7.738;2023-02-22T01:17:59;76842.44;;;-145.25;81.94
54146;BME280;65909;49.422;7.738;2023-02-22T01:20:25;76840.41;;;-145.25;81.81
54146;BME280;65909;49.422;7.738;2023-02-22T01:22:54;76820.38;;;-145.25;81.44
54146;BME280;65909;49.422;7.738;2023-02-22T01:25:23;76812.34;;;-145.25;80.28
54146;BME280;65909;49.422;7.738;2023-02-22T01:27:50;76810.34;;;-145.25;80.17
54146;BME280;65909;49.422;7.738;2023-02-22T01:30:22;76820.38;;;-145.25;80.05
54146;BME280;65909;49.422;7.738;2023-02-22T01:32:48;76836.41;;;-145.25;80.79
54146;BME280;65909;49.422;7.738;2023-02-22T01:35:19;76834.41;;;-145.25;80.82
54146;BME280;65909;49.422;7.738;2023-02-22T01:37:44;76850.44;;;-145.25;80.84
54146;BME280;65909;49.422;7.738;2023-02-22T01:40:22;76844.44;;;-145.25;81.02
54146;BME280;65909;49.422;7.738;2023-02-22T01:42:51;76854.47;;;-145.25;80.65
54146;BME280;65909;49.422;7.738;2023-02-22T01:50:34;76840.41;;;-145.25;80.77
54146;BME280;65909;49.422;7.738;2023-02-22T01:53:02;76862.47;;;-145.25;81.21
54146;BME280;65909;49.422;7.738;2023-02-22T01:55:30;76862.47;;;-145.25;80.77
54146;BME280;65909;49.422;7.738;2023-02-22T01:57:56;76876.50;;;-145.25;80.84
54146;BME280;65909;49.422;7.738;2023-02-22T02:00:22;76878.50;;;-145.25;80.61
54146;BME280;65909;49.422;7.738;2023-02-22T02:02:59;76902.56;;;-145.25;81.00
54146;BME280;65909;49.422;7.738;2023-02-22T02:05:27;76902.56;;;-145.25;81.45
54146;BME280;65909;49.422;7.738;2023-02-22T02:07:56;76886.53;;;-145.25;81.03
54146;BME280;65909;49.422;7.738;2023-02-22T02:10:22;76870.50;;;-145.25;80.53
54146;BME280;65909;49.422;7.738;2023-02-22T02:12:49;76848.44;;;-145.25;79.78
54146;BME280;65909;49.422;7.738;2023-02-22T02:17:44;76870.50;;;-145.25;79.94
54146;BME280;65909;49.422;7.738;2023-02-22T02:20:14;76860.47;;;-145.25;79.51
54146;BME280;65909;49.422;7.738;2023-02-22T02:33:55;76870.50;;;-145.25;80.03
54146;BME280;65909;49.422;7.738;2023-02-22T02:36:45;76894.56;;;-145.25;82.10
54146;BME280;65909;49.422;7.738;2023-02-22T02:39:26;76876.50;;;-145.25;81.97
54146;BME280;65909;49.422;7.738;2023-02-22T02:41:55;76926.63;;;-145.25;83.92
54146;BME280;65909;49.422;7.738;2023-02-22T02:47:10;76896.56;;;-145.25;84.10
54146;BME280;65909;49.422;7.738;2023-02-22T02:49:46;76928.66;;;-145.25;85.22
54146;BME280;65909;49.422;7.738;2023-02-22T02:52:14;76904.59;;;-145.25;85.29
54146;BME280;65909;49.422;7.738;2023-02-22T02:54:42;76920.63;;;-145.25;85.82
54146;BME280;65909;49.422;7.738;2023-02-22T02:57:09;76902.56;;;-145.25;85.18
54146;BME280;65909;49.422;7.738;2023-02-22T02:59:36;76904.59;;;-145.25;85.05
54146;BME280;65909;49.422;7.738;2023-02-22T03:02:29;76898.56;;;-145.25;84.96
54146;BME280;65909;49.422;7.738;2023-02-22T03:05:26;76902.56;;;-145.25;84.44
54146;BME280;65909;49.422;7.738;2023-02-22T03:10:47;76918.63;;;-145.25;84.62
54146;BME280;65909;49.422;7.738;2023-02-22T03:17:03;76898.56;;;-145.25;83.37
54146;BME280;65909;49.422;7.738;2023-02-22T03:19:59;76898.56;;;-145.25;82.90
54146;BME280;65909;49.422;7.738;2023-02-22T03:22:32;76902.56;;;-145.25;82.85
54146;BME280;65909;49.422;7.738;2023-02-22T03:25:04;76908.59;;;-145.25;82.49
54146;BME280;65909;49.422;7.738;2023-02-22T03:27:54;76924.63;;;-145.25;82.38
54146;BME280;65909;49.422;7.738;2023-02-22T03:30:40;76938.66;;;-145.25;82.23
54146;BME280;65909;49.422;7.738;2023-02-22T03:33:10;76938.66;;;-145.25;82.91
54146;BME280;65909;49.422;7.738;2023-02-22T03:35:47;76914.59;;;-145.25;82.07
54146;BME280;65909;49.422;7.738;2023-02-22T03:38:15;76940.69;;;-145.25;82.55
54146;BME280;65909;49.422;7.738;2023-02-22T03:40:47;76982.78;;;-145.25;84.13
54146;BME280;65909;49.422;7.738;2023-02-22T03:43:20;76978.78;;;-145.25;84.58
54146;BME280;65909;49.422;7.738;2023-02-22T03:45:47;76940.69;;;-145.25;83.89
54146;BME280;65909;49.422;7.738;2023-02-22T03:48:30;76932.66;;;-145.25;83.02
54146;BME280;65909;49.422;7.738;2023-02-22T03:51:00;76926.63;;;-145.25;83.40
54146;BME280;65909;49.422;7.738;2023-02-22T03:53:26;76908.59;;;-145.25;83.24
54146;BME280;65909;49.422;7.738;2023-02-22T03:55:54;76896.56;;;-145.25;82.95
54146;BME280;65909;49.422;7.738;2023-02-22T03:58:21;76890.53;;;-145.25;83.12
54146;BME280;65909;49.422;7.738;2023-02-22T04:00:47;76912.59;;;-145.25;83.53
54146;BME280;65909;49.422;7.738;2023-02-22T04:03:18;76910.59;;;-145.25;83.35
54146;BME280;65909;49.422;7.738;2023-02-22T04:05:43;76920.63;;;-145.25;84.13
54146;BME280;65909;49.422;7.738;2023-02-22T04:08:09;76914.59;;;-145.25;83.82
54146;BME280;65909;49.422;7.738;2023-02-22T04:10:34;76910.59;;;-145.25;83.87
54146;BME280;65909;49.422;7.738;2023-02-22T04:13:01;76902.56;;;-145.25;83.52
54146;BME280;65909;49.422;7.738;2023-02-22T04:15:29;76926.63;;;-145.25;84.46
54146;BME280;65909;49.422;7.738;2023-02-22T04:17:55;76914.59;;;-145.25;85.08
54146;BME280;65909;49.422;7.738;2023-02-22T04:20:20;76916.63;;;-145.25;84.54
54146;BME280;65909;49.422;7.738;2023-02-22T04:22:50;76938.66;;;-145.25;85.09
54146;BME280;65909;49.422;7.738;2023-02-22T04:25:16;76932.66;;;-145.25;86.07
54146;BME280;65909;49.422;7.738;2023-02-22T04:27:43;76934.66;;;-145.25;86.25
54146;BME280;65909;49.422;7.738;2023-02-22T04:30:09;76966.75;;;-145.25;86.63
54146;BME280;65909;49.422;7.738;2023-02-22T04:32:34;76998.81;;;-145.25;88.21
54146;BME280;65909;49.422;7.738;2023-02-22T04:35:00;76988.78;;;-145.25;90.09
54146;BME280;65909;49.422;7.738;2023-02-22T04:37:25;76964.72;;;-145.25;89.97
54146;BME280;65909;49.422;7.738;2023-02-22T04:39:50;76982.78;;;-145.25;89.46
54146;BME280;65909;49.422;7.738;2023-02-22T04:42:16;76978.78;;;-145.25;90.49
54146;BME280;65909;49.422;7.738;2023-02-22T04:44:41;77010.84;;;-145.25;91.33
54146;BME280;65909;49.422;7.738;2023-02-22T04:47:06;76968.75;;;-145.25;91.35
54146;BME280;65909;49.422;7.738;2023-02-22T04:49:32;76986.78;;;-145.25;90.60
54146;BME280;65909;49.422;7.738;2023-02-22T04:51:57;77020.88;;;-145.25;90.38
54146;BME280;65909;49.422;7.738;2023-02-22T04:54:22;77024.88;;;-145.25;90.42
54146;BME280;65909;49.422;7.738;2023-02-22T04:56:48;77040.94;;;-145.25;90.03
54146;BME280;65909;49.422;7.738;2023-02-22T04:59:13;77014.88;;;-145.25;90.12
54146;BME280;65909;49.422;7.738;2023-02-22T05:01:39;77010.84;;;-145.25;89.28
54146;BME280;65909;49.422;7.738;2023-02-22T05:04:05;77032.91;;;-145.25;89.54
54146;BME280;65909;49.422;7.738;2023-02-22T05:06:31;77044.94;;;-145.25;89.88
54146;BME280;65909;49.422;7.738;2023-02-22T05:08:57;77034.91;;;-145.25;89.49
54146;BME280;65909;49.422;7.738;2023-02-22T05:11:22;77065.00;;;-145.25;89.78
54146;BME280;65909;49.422;7.738;2023-02-22T05:13:48;77042.94;;;-145.25;91.24
54146;BME280;65909;49.422;7.738;2023-02-22T05:16:14;77018.88;;;-145.25;89.85
54146;BME280;65909;49.422;7.738;2023-02-22T05:18:42;77014.88;;;-145.25;89.57
54146;BME280;65909;49.422;7.738;2023-02-22T05:21:07;76998.81;;;-145.25;88.52
54146;BME280;65909;49.422;7.738;2023-02-22T05:23:33;77024.88;;;-145.25;88.27
54146;BME280;65909;49.422;7.738;2023-02-22T05:25:59;77030.91;;;-145.25;88.80
54146;BME280;65909;49.422;7.738;2023-02-22T05:28:24;77046.94;;;-145.25;87.99
54146;BME280;65909;49.422;7.738;2023-02-22T05:30:50;77012.84;;;-145.25;89.01
54146;BME280;65909;49.422;7.738;2023-02-22T05:33:15;77032.91;;;-145.25;89.25
54146;BME280;65909;49.422;7.738;2023-02-22T05:35:41;77020.88;;;-145.25;89.79
54146;BME280;65909;49.422;7.738;2023-02-22T05:38:07;77028.91;;;-145.25;90.00
54146;BME280;65909;49.422;7.738;2023-02-22T05:40:32;77026.91;;;-145.25;90.17
54146;BME280;65909;49.422;7.738;2023-02-22T05:42:58;77014.88;;;-145.25;90.20
54146;BME280;65909;49.422;7.738;2023-02-22T05:45:26;77002.84;;;-145.25;89.93
54146;BME280;65909;49.422;7.738;2023-02-22T05:47:52;77026.91;;;-145.25;89.41
54146;BME280;65909;49.422;7.738;2023-02-22T05:50:19;77022.88;;;-145.25;90.61
54146;BME280;65909;49.422;7.738;2023-02-22T05:52:45;77075.03;;;-145.25;91.85
54146;BME280;65909;49.422;7.738;2023-02-22T05:55:13;77095.06;;;-145.25;93.10
54146;BME280;65909;49.422;7.738;2023-02-22T05:57:39;77091.06;;;-145.25;94.44
54146;BME280;65909;49.422;7.738;2023-02-22T06:00:05;77091.06;;;-145.25;94.94
54146;BME280;65909;49.422;7.738;2023-02-22T06:02:31;77069.00;;;-145.25;95.49
54146;BME280;65909;49.422;7.738;2023-02-22T06:04:57;77046.94;;;-145.25;95.69
54146;BME280;65909;49.422;7.738;2023-02-22T06:07:22;77058.97;;;-145.25;94.53
54146;BME280;65909;49.422;7.738;2023-02-22T06:09:47;77079.03;;;-145.25;94.86
54146;BME280;65909;49.422;7.738;2023-02-22T06:12:13;77081.03;;;-145.25;95.36
54146;BME280;65909;49.422;7.738;2023-02-22T06:14:38;77056.97;;;-145.25;94.79
54146;BME280;65909;49.422;7.738;2023-02-22T06:17:05;77075.03;;;-145.25;95.01
54146;BME280;65909;49.422;7.738;2023-02-22T06:19:30;77087.06;;;-145.25;95.17
54146;BME280;65909;49.422;7.738;2023-02-22T06:21:57;77137.19;;;-145.25;95.03
54146;BME280;65909;49.422;7.738;2023-02-22T06:24:24;77085.03;;;-145.25;96.15
54146;BME280;65909;49.422;7.738;2023-02-22T06:27:01;77028.91;;;-145.25;95.60
54146;BME280;65909;49.422;7.738;2023-02-22T06:29:27;77054.97;;;-145.25;94.64
54146;BME280;65909;49.422;7.738;2023-02-22T06:31:53;77052.97;;;-145.25;94.10
54146;BME280;65909;49.422;7.738;2023-02-22T06:34:19;77040.94;;;-145.25;93.91
54146;BME280;65909;49.422;7.738;2023-02-22T06:36:47;77073.00;;;-145.25;93.92
54146;BME280;65909;49.422;7.738;2023-02-22T06:39:13;77058.97;;;-145.25;94.95
54146;BME280;65909;49.422;7.738;2023-02-22T06:41:44;77024.88;;;-145.25;94.71
54146;BME280;65909;49.422;7.738;2023-02-22T06:44:10;77050.97;;;-145.25;93.61
54146;BME280;65909;49.422;7.738;2023-02-22T06:46:36;77065.00;;;-145.25;94.20
54146;BME280;65909;49.422;7.738;2023-02-22T06:49:02;77016.88;;;-145.25;94.60
54146;BME280;65909;49.422;7.738;2023-02-22T06:51:28;77000.81;;;-145.25;93.84
54146;BME280;65909;49.422;7.738;2023-02-22T06:53:54;77022.88;;;-145.25;92.48
54146;BME280;65909;49.422;7.738;2023-02-22T06:56:20;77048.94;;;-145.25;93.69
54146;BME280;65909;49.422;7.738;2023-02-22T06:58:46;77030.91;;;-145.25;94.21
54146;BME280;65909;49.422;7.738;2023-02-22T07:01:11;76990.81;;;-145.25;94.29
54146;BME280;65909;49.422;7.738;2023-02-22T07:03:37;77004.84;;;-145.25;92.95
54146;BME280;65909;49.422;7.738;2023-02-22T07:06:03;76984.78;;;-145.25;92.79
54146;BME280;65909;49.422;7.738;2023-02-22T07:08:29;76984.78;;;-145.25;92.91
54146;BME280;65909;49.422;7.738;2023-02-22T07:10:55;76968.75;;;-145.25;92.20
54146;BME280;65909;49.422;7.738;2023-02-22T07:13:20;76954.72;;;-145.25;91.77
54146;BME280;65909;49.422;7.738;2023-02-22T07:15:46;76952.72;;;-145.25;91.36
54146;BME280;65909;49.422;7.738;2023-02-22T07:18:11;76958.72;;;-145.25;91.36
54146;BME280;65909;49.422;7.738;2023-02-22T07:20:38;76950.69;;;-145.25;91.68
54146;BME280;65909;49.422;7.738;2023-02-22T07:23:04;76942.69;;;-145.25;90.65
54146;BME280;65909;49.422;7.738;2023-02-22T07:25:30;76956.72;;;-145.25;91.01
54146;BME280;65909;49.422;7.738;2023-02-22T07:27:55;76958.72;;;-145.25;91.57
54146;BME280;65909;49.422;7.738;2023-02-22T07:30:24;76948.69;;;-145.25;91.92
54146;BME280;65909;49.422;7.738;2023-02-22T07:32:53;76942.69;;;-145.25;91.65
54146;BME280;65909;49.422;7.738;2023-02-22T07:37:49;77026.91;;;-145.25;92.26
54146;BME280;65909;49.422;7.738;2023-02-22T07:40:15;77004.84;;;-145.25;93.62
54146;BME280;65909;49.422;7.738;2023-02-22T07:42:58;77014.88;;;-145.25;93.20
54146;BME280;65909;49.422;7.738;2023-02-22T07:45:27;76962.72;;;-145.25;93.86
54146;BME280;65909;49.422;7.738;2023-02-22T07:47:53;76956.72;;;-145.25;93.14
54146;BME280;65909;49.422;7.738;2023-02-22T07:50:20;76958.72;;;-145.25;93.15
54146;BME280;65909;49.422;7.738;2023-02-22T07:52:46;76932.66;;;-145.25;92.93
54146;BME280;65909;49.422;7.738;2023-02-22T07:55:17;76906.59;;;-145.25;92.69
54146;BME280;65909;49.422;7.738;2023-02-22T07:57:47;76850.44;;;-145.25;91.50
54146;BME280;65909;49.422;7.738;2023-02-22T08:00:14;76842.44;;;-145.25;89.21
54146;BME280;65909;49.422;7.738;2023-02-22T08:02:41;76902.56;;;-145.25;89.67
54146;BME280;65909;49.422;7.738;2023-02-22T08:05:07;76842.44;;;-145.25;91.26
54146;BME280;65909;49.422;7.738;2023-02-22T08:07:35;76814.34;;;-145.25;90.13
54146;BME280;65909;49.422;7.738;2023-02-22T08:10:00;76804.31;;;-145.25;88.98
54146;BME280;65909;49.422;7.738;2023-02-22T08:12:30;76812.34;;;-145.25;89.50
54146;BME280;65909;49.422;7.738;2023-02-22T08:14:55;76776.25;;;-145.25;89.52
54146;BME280;65909;49.422;7.738;2023-02-22T08:17:20;76790.28;;;-145.25;88.92
54146;BME280;65909;49.422;7.738;2023-02-22T08:19:46;76742.19;;;-145.25;88.40
54146;BME280;65909;49.422;7.738;2023-02-22T08:22:12;76802.31;;;-145.25;87.14
54146;BME280;65909;49.422;7.738;2023-02-22T08:24:37;76782.28;;;-145.25;88.24
54146;BME280;65909;49.422;7.738;2023-02-22T08:27:02;76788.28;;;-145.25;89.83
54146;BME280;65909;49.422;7.738;2023-02-22T08:29:28;76746.19;;;-145.25;88.28
54146;BME280;65909;49.422;7.738;2023-02-22T08:31:58;76752.19;;;-145.25;87.29
54146;BME280;65909;49.422;7.738;2023-02-22T08:34:23;76810.34;;;-145.25;88.73
54146;BME280;65909;49.422;7.738;2023-02-22T08:36:49;76768.25;;;-145.25;88.89
54146;BME280;65909;49.422;7.738;2023-02-22T08:39:14;76780.28;;;-145.25;89.25
54146;BME280;65909;49.422;7.738;2023-02-22T08:41:39;76764.22;;;-145.25;88.58
54146;BME280;65909;49.422;7.738;2023-02-22T08:44:05;76770.25;;;-145.25;87.39
54146;BME280;65909;49.422;7.738;2023-02-22T08:46:30;76746.19;;;-145.25;86.99
54146;BME280;65909;49.422;7.738;2023-02-22T08:48:55;76700.06;;;-145.25;87.32
54146;BME280;65909;49.422;7.738;2023-02-22T08:51:21;76649.94;;;-145.25;85.31
54146;BME280;65909;49.422;7.738;2023-02-22T08:53:47;76637.91;;;-145.25;83.90
54146;BME280;65909;49.422;7.738;2023-02-22T08:56:12;76653.97;;;-145.25;84.69
54146;BME280;65909;49.422;7.738;2023-02-22T08:58:37;76668.00;;;-145.25;84.48
54146;BME280;65909;49.422;7.738;2023-02-22T09:01:03;76663.97;;;-145.25;84.59
54146;BME280;65909;49.422;7.738;2023-02-22T09:03:28;76649.94;;;-145.25;83.50
54146;BME280;65909;49.422;7.738;2023-02-22T09:05:54;76613.84;;;-145.25;82.85
54146;BME280;65909;49.422;7.738;2023-02-22T09:08:20;76579.78;;;-145.25;81.42
54146;BME280;65909;49.422;7.738;2023-02-22T09:10:45;76555.72;;;-145.25;80.36
54146;BME280;65909;49.422;7.738;2023-02-22T09:13:11;76547.69;;;-145.25;79.90
54146;BME280;65909;49.422;7.738;2023-02-22T09:15:37;76573.75;;;-145.25;81.26
54146;BME280;65909;49.422;7.738;2023-02-22T09:18:05;76619.88;;;-145.25;83.37
54146;BME280;65909;49.422;7.738;2023-02-22T09:20:32;76539.69;;;-145.25;82.70
54146;BME280;65909;49.422;7.738;2023-02-22T09:23:00;76521.63;;;-145.25;80.45
54146;BME280;65909;49.422;7.738;2023-02-22T09:25:27;76499.56;;;-145.25;80.92
54146;BME280;65909;49.422;7.738;2023-02-22T09:27:54;76469.50;;;-145.25;79.91
54146;BME280;65909;49.422;7.738;2023-02-22T09:30:28;76445.44;;;-145.25;78.02
54146;BME280;65909;49.422;7.738;2023-02-22T09:33:02;76411.38;;;-145.25;77.90
54146;BME280;65909;49.422;7.738;2023-02-22T09:35:28;76401.34;;;-145.25;77.29
54146;BME280;65909;49.422;7.738;2023-02-22T09:37:58;76397.31;;;-145.25;77.45
54146;BME280;65909;49.422;7.738;2023-02-22T09:40:27;76303.09;;;-145.25;77.01
54146;BME280;65909;49.422;7.738;2023-02-22T09:46:08;76271.03;;;-145.25;74.78
54146;BME280;65909;49.422;7.738;2023-02-22T09:51:51;76200.88;;;-145.25;71.65
54146;BME280;65909;49.422;7.738;2023-02-22T09:54:44;76230.94;;;-145.25;72.38
54146;BME280;65909;49.422;7.738;2023-02-22T09:57:12;76232.94;;;-145.25;72.94
54146;BME280;65909;49.422;7.738;2023-02-22T09:59:44;76216.91;;;-145.25;72.56
54146;BME280;65909;49.422;7.738;2023-02-22T10:02:30;76305.09;;;-145.25;75.83
54146;BME280;65909;49.422;7.738;2023-02-22T10:05:14;76240.97;;;-145.25;73.48
54146;BME280;65909;49.422;7.738;2023-02-22T10:08:03;76313.13;;;-145.25;76.19
54146;BME280;65909;49.422;7.738;2023-02-22T10:10:35;76463.50;;;-145.25;80.55
54146;BME280;65909;49.422;7.738;2023-02-22T10:13:31;76463.50;;;-145.25;82.44
54146;BME280;65909;49.422;7.738;2023-02-22T10:22:00;76267.03;;;-145.25;77.27
54146;BME280;65909;49.422;7.738;2023-02-22T10:24:56;76257.00;;;-145.25;75.49
54146;BME280;65909;49.422;7.738;2023-02-22T10:27:31;76333.19;;;-145.25;75.91
54146;BME280;65909;49.422;7.738;2023-02-22T10:30:07;76403.34;;;-145.25;79.35
54146;BME280;65909;49.422;7.738;2023-02-22T10:32:44;76455.47;;;-145.25;82.88
54146;BME280;65909;49.422;7.738;2023-02-22T10:35:29;76391.31;;;-145.25;82.60
54146;BME280;65909;49.422;7.738;2023-02-22T10:37:59;76381.28;;;-145.25;81.92
54146;BME280;65909;49.422;7.738;2023-02-22T10:40:26;76409.34;;;-145.25;83.21
54146;BME280;65909;49.422;7.738;2023-02-22T10:43:05;76375.28;;;-145.25;82.67
54146;BME280;65909;49.422;7.738;2023-02-22T10:45:33;76417.38;;;-145.25;82.83
54146;BME280;65909;49.422;7.738;2023-02-22T10:48:05;76375.28;;;-145.25;82.28
54146;BME280;65909;49.422;7.738;2023-02-22T10:50:33;76397.31;;;-145.25;82.77
54146;BME280;65909;49.422;7.738;2023-02-22T10:52:59;76457.47;;;-145.25;84.78
54146;BME280;65909;49.422;7.738;2023-02-22T10:55:24;76409.34;;;-145.25;85.26
54146;BME280;65909;49.422;7.738;2023-02-22T10:57:59;76429.41;;;-145.25;84.54
54146;BME280;65909;49.422;7.738;2023-02-22T11:00:32;76427.41;;;-145.25;84.95
54146;BME280;65909;49.422;7.738;2023-02-22T11:03:03;76449.44;;;-145.25;87.31
54146;BME280;65909;49.422;7.738;2023-02-22T11:05:39;76401.34;;;-145.25;86.80
54146;BME280;65909;49.422;7.738;2023-02-22T11:10:52;76339.19;;;-145.25;83.25
54146;BME280;65909;49.422;7.738;2023-02-22T11:13:31;76353.22;;;-145.25;84.47
54146;BME280;65909;49.422;7.738;2023-02-22T11:16:00;76265.00;;;-145.25;81.89
54146;BME280;65909;49.422;7.738;2023-02-22T11:18:36;76080.56;;;-145.25;76.44
54146;BME280;65909;49.422;7.738;2023-02-22T11:21:08;75813.97;;;-145.25;67.72
54146;BME280;65909;49.422;7.738;2023-02-22T11:23:36;75469.19;;;-145.25;59.00
54146;BME280;65909;49.422;7.738;2023-02-22T11:26:13;75457.19;;;-145.25;58.26
54146;BME280;65909;49.422;7.738;2023-02-22T11:28:50;75212.66;;;-145.25;53.19
54146;BME280;65909;49.422;7.738;2023-02-22T11:31:23;74992.19;;;-145.25;48.09
54146;BME280;65909;49.422;7.738;2023-02-22T11:36:46;74906.00;;;-145.25;44.31
54146;BME280;65909;49.422;7.738;2023-02-22T11:39:24;75202.63;;;-145.25;49.80
54146;BME280;65909;49.422;7.738;2023-02-22T11:41:51;75062.34;;;-145.25;48.77
54146;BME280;65909;49.422;7.738;2023-02-22T11:44:27;74809.81;;;-145.25;44.22
54146;BME280;65909;49.422;7.738;2023-02-22T11:46:55;74829.88;;;-145.25;43.85
54146;BME280;65909;49.422;7.738;2023-02-22T11:49:33;75138.50;;;-145.25;47.83
54146;BME280;65909;49.422;7.738;2023-02-22T12:00:25;75148.50;;;-145.25;49.48
54146;BME280;65909;49.422;7.738;2023-02-22T12:06:11;75034.28;;;-145.25;47.72
54146;BME280;65909;49.422;7.738;2023-02-22T12:09:50;74918.03;;;-145.25;45.70
54146;BME280;65909;49.422;7.738;2023-02-22T12:17:25;74847.91;;;-145.25;43.95
54146;BME280;65909;49.422;7.738;2023-02-22T12:22:52;75048.31;;;-145.25;47.10
54146;BME280;65909;49.422;7.738;2023-02-22T12:25:21;75150.53;;;-145.25;47.99
54146;BME280;65909;49.422;7.738;2023-02-22T12:28:10;75220.66;;;-145.25;49.21
54146;BME280;65909;49.422;7.738;2023-02-22T12:30:43;75286.81;;;-145.25;50.36
54146;BME280;65909;49.422;7.738;2023-02-22T12:33:17;75054.31;;;-145.25;48.68
54146;BME280;65909;49.422;7.738;2023-02-22T12:35:49;75244.72;;;-145.25;49.43
54146;BME280;65909;49.422;7.738;2023-02-22T12:38:44;75385.03;;;-145.25;52.12
54146;BME280;65909;49.422;7.738;2023-02-22T12:41:21;75238.72;;;-145.25;50.95
54146;BME280;65909;49.422;7.738;2023-02-22T12:43:53;75296.84;;;-145.25;51.44
54146;BME280;65909;49.422;7.738;2023-02-22T12:46:43;75320.88;;;-145.25;52.30
54146;BME280;65909;49.422;7.738;2023-02-22T12:49:44;75266.78;;;-145.25;51.03
54146;BME280;65909;49.422;7.738;2023-02-22T12:55:23;75419.09;;;-145.25;52.65
54146;BME280;65909;49.422;7.738;2023-02-22T12:58:08;75294.81;;;-145.25;52.06
54146;BME280;65909;49.422;7.738;2023-02-22T13:00:43;75379.00;;;-145.25;53.06
54146;BME280;65909;49.422;7.738;2023-02-22T13:05:39;75260.75;;;-145.25;51.87
54146;BME280;65909;49.422;7.738;2023-02-22T13:08:20;75274.78;;;-145.25;51.90
54146;BME280;65909;49.422;7.738;2023-02-22T13:11:12;75282.81;;;-145.25;52.49
54146;BME280;65909;49.422;7.738;2023-02-22T13:16:47;75302.84;;;-145.25;51.42
54146;BME280;65909;49.422;7.738;2023-02-22T13:21:56;75306.84;;;-145.25;49.47
54146;BME280;65909;49.422;7.738;2023-02-22T13:24:56;75268.78;;;-145.25;48.72
54146;BME280;65909;49.422;7.738;2023-02-22T13:27:32;75300.84;;;-145.25;48.63
54146;BME280;65909;49.422;7.738;2023-02-22T13:29:59;75270.78;;;-145.25;48.64
54146;BME280;65909;49.422;7.738;2023-02-22T13:38:19;75234.69;;;-145.25;47.88
54146;BME280;65909;49.422;7.738;2023-02-22T13:51:33;75274.78;;;-145.25;48.51
54146;BME280;65909;49.422;7.738;2023-02-22T13:54:06;75330.91;;;-145.25;49.50
54146;BME280;65909;49.422;7.738;2023-02-22T13:56:32;75266.78;;;-145.25;48.96
54146;BME280;65909;49.422;7.738;2023-02-22T13:59:00;75276.78;;;-145.25;49.13
54146;BME280;65909;49.422;7.738;2023-02-22T14:04:36;75246.72;;;-145.25;49.01
54146;BME280;65909;49.422;7.738;2023-02-22T14:09:52;75286.81;;;-145.25;49.48
54146;BME280;65909;49.422;7.738;2023-02-22T14:17:38;75294.81;;;-145.25;50.48
54146;BME280;65909;49.422;7.738;2023-02-22T14:22:40;75304.84;;;-145.25;50.58
54146;BME280;65909;49.422;7.738;2023-02-22T14:25:30;75256.75;;;-145.25;50.42
54146;BME280;65909;49.422;7.738;2023-02-22T14:27:57;75282.81;;;-145.25;49.88
54146;BME280;65909;49.422;7.738;2023-02-22T14:30:26;75308.84;;;-145.25;50.48
54146;BME280;65909;49.422;7.738;2023-02-22T14:32:52;75300.84;;;-145.25;50.42
54146;BME280;65909;49.422;7.738;2023-02-22T14:35:18;75346.94;;;-145.25;50.65
54146;BME280;65909;49.422;7.738;2023-02-22T14:37:53;75318.88;;;-145.25;50.89
54146;BME280;65909;49.422;7.738;2023-02-22T14:43:12;75395.03;;;-145.25;51.88
54146;BME280;65909;49.422;7.738;2023-02-22T14:45:44;75415.09;;;-145.25;52.25
54146;BME280;65909;49.422;7.738;2023-02-22T14:55:40;75447.16;;;-145.25;52.89